Terminal Aerodrome Forecast
Issued by NWS Duluth, MN

Home | Current Version | Previous Version | Text Only | Print | Product List | Glossary On
Versions: 1 2 3 4 5 6 7 8 9 10 11 12 13 14 15 16 17 18 19 20 21 22 23
000
FTUS43 KDLH 270500
TAFDLH
TAF
KDLH 270524Z 2706/2806 35007KT P6SM -SN OVC021
     FM270900 34004KT P6SM OVC018
     FM271600 31007KT P6SM BKN023 BKN080
     FM272200 25009KT P6SM BKN035
     FM280300 23008KT P6SM -SN OVC019=

USA.gov is the U.S. government's official web portal to all federal, state and local government web resources and services.